Scroll down
FLIGHT INFORMATION
SAS Scandinavian Airlines

SAS4425

At Arrival Gate

ENSB
 ENTC
DATE: 2019-11-14
GATE: 2
GATE DEPARTURE: 17:41
TAKEOFF: 17:52
DATE: 2019-11-14
GATE: 23
LANDING: 19:18
GATE ARRIVAL: 19:24
FLIGHT DATA
Crew: KYLE RODGERS
Speed: 439 kts Altitude: 35000 ft
Stage Length: 517 nm
Route: 
Block Time: 1.7 Flight Time: 1.4
Fuel Used: 9089 LB
TRACK DATA
50000 FT1000 KT
AIRCRAFT INFORMATION
Aircraft Type: B738
Registration: LN-RCN
SELCAL:  MSN/LN: 28318 / 529
Operator: SAS SCANDINAVIAN AIRLINES
Flights: 11 Block Time: 17.7 Flight Time: 14.5
Fuel Used: 93415 LB
  • DEPARTURE INFORMATION
    Date: 2019-11-14
    Airport: ENSB
    Gate: 2
    Gate Departure: 17:41
    Takeoff: 17:52
    ARRIVAL INFORMATION
    Date: 2019-11-14
    Airport: ENTC
    Gate: 23
    Landing: 19:18
    Gate Arrival: 19:24
  • FLIGHT DATA
    Crew: KYLE RODGERS
    Speed: 439 kts Altitude: 35000 ft
    Stage Length: 279 nm
    Route: 
    Block Time: 1.7 Flight Time: 1.4
    Fuel Used: 9089 LB
  • AIRCRAFT INFORMATION
    Aircraft Type: B738
    Registration: LN-RCN
    SELCAL:  MSN/LN: 28318 / 529
    Operator: SAS Scandinavian Airlines
    Flights: 11 Block Time: 17.7 Flight Time: 14.5
    Fuel Used: 93415 LB

DATALINK LOG | Newest first | Current as of: 2020-09-28 18:07:08
LABEL SEQUENCE CONTENT Dn/Up
QD254319:24 11.3▼ Dn
QC180619:18▼ Dn
GA1002GATE 23▲ Up
GR0826ENTC --:-- YP/UM 00/00 WCHR/S/C 00/00/00▼ Dn
2U4841ENTC 141820Z 00000KT 9999 SCT039 M04/M05 Q1009 NOSIG RMK WIND 2600FT 29006KT▲ Up
2S4701ENTC▼ Dn
QB522717:52▼ Dn
QA412417:41 20.4▼ Dn
2U1106ENSB 141620Z 13010KT 9999 FEW040 M03/M08 Q1022 RMK WIND 1400FT 11016KT▲ Up
2S1002ENSB▼ Dn
A31014CLEARED TO ENTC VIA AMPI1A AMPIS P853 LOMVI LOMV3M. SQUAWK 6061.▲ Up
B30951ENSB ENTC SAS4425 LN-RCN V ▼ Dn
Q00359[LINK ACK]▲ Up
Q00313[LINK TEST]▼ Dn


AIRCRAFT HISTORY
FLIGHT DATE FLIGHT NO. ORIGIN DESTINATION ROUTE BLOCK TIME FLIGHT TIME FUEL USED (LB) PILOT
2020-09-24SAS35ESNU ESSA ESNU DEDIT SIPRI HMR ESSA1.20.95875BigSwede
2020-08-07SAS25ESNQ ESNU ESNQ TERPA KETEL ESNU10.86146BigSwede
2020-07-30SAS1044ESSA ESNQ ESSA SA551 SA564 SA709 SA710 SA855 LUMAX RESNA OSK RASEN REKMI OSKIR ITVAV VAGAS NQ704 NQ703 RW031.81.49293BigSwede
2020-06-27SAS414EKCH ESSA EKCH KEMAX NEXIL ROXEN DEKIK VEPIP BEDOS NEFYN MIKNA PELUP NILUG ESSA1.316605BigSwede
2020-02-20SAS1407ESSA EKCH 1.517235BigSwede
2020-01-24SAS1045ESNQ ESSA 1.81.47391BigSwede
2019-12-07SAS1207ENGM ESNQ 1.71.59123Douglas Morlan
2019-11-14SAS4431ENTC ENGM 2.5212569Kyle Rodgers
2019-11-14SAS4425ENSB ENTC 1.71.49089Kyle Rodgers
2019-11-14SAS4414ENTC ENSB 1.71.59499Kyle Rodgers
2019-11-14SAS4406ENGM ENTC 21.610589Kyle Rodgers